Flugplatz Donzdorf

Für EDPM sind keine METAR/TAF Berichte vorhanden.
Es werden die Flugwettermeldungen vom Flugplatz Stuttgart in 45 km Entfernung angezeigt.

Bericht für EDDS

vom 25.09. um 19:20 UTC

Wind 7 kt aus 250°

Sichtweite 10 km oder mehr

gering bewölkt in 2500 ft

aufgebrochene Bewölkung in 3000 ft

Temperatur 9.0°C

Taupunkt 6.0°C

Luftfeuchtigkeit 81%

Luftdruck 1001 hPa

keine wesentliche Wetteränderung innerhalb den nächsten 2 Stunden zu erwarten

EDDS 251920Z 25007KT 220V280 9999 FEW025 BKN030 09/06 Q1001 NOSIG

Prognose für EDDS

vom 25.09. um 17:00 UTC

Zwischen 18:00 UTC und 02:00 UTC

Wind 6 kt aus 210°

Sichtweite 10 km oder mehr

gering bewölkt in 2000 ft

aufgelockert bewölkt in 4000 ft


Am 26.09. zwischen 02:00 und 04:00 UTC übergehend zu

Wind 11 kt aus 240°

Sichtweite 10 km oder mehr

gering bewölkt in 2000 ft

aufgelockert bewölkt in 4000 ft


Am 26.09. zwischen 08:00 UTC und 18:00 UTC zeitweise

Wind 15 kt aus 250° in Böen 25 kt

Regen

Sprühregen

TAF EDDS 251700Z 2518/2618 21006KT 9999 FEW020 SCT040 BECMG 2602/2604 24011KT TEMPO 2608/2618 25015G25KT RADZ
Impressum